EFKK/KOK METAR and TAF weather

Enter ICAO airport designator
Station Type Date Time Source
EFKK METAR 2019/10/20 18:50 UTC NOAA

EFKK 201850Z AUTO 03005KT 9999 OVC017 00/M01 Q1015


Station Type Date Time Source
EFKK Decoded METAR 2019/10/20 18:50 UTC NOAA

Kruunupyy, Finland (EFKK) 63-43N 023-09E
Oct 20, 2019 - 02:50 PM EDT / 2019.10.20 1850 UTC
Wind: from the NNE (030 degrees) at 6 MPH (5 KT):0
Visibility: greater than 7 mile(s):0
Sky conditions: overcast
Temperature: 32 F (0 C)
Windchill: 26 F (-3 C):1
Dew Point: 30 F (-1 C)
Relative Humidity: 92%
Pressure (altimeter): 29.97 in. Hg (1015 hPa)
ob: EFKK 201850Z AUTO 03005KT 9999 OVC017 00/M01 Q1015
cycle: 19

Station Type Date Time Source
EFKK TAF 2019/04/22 21:42 UTC NOAA

TAF EFKK 222023Z 2221/2321 18006KT CAVOK

Example: see airport list